Vremea acum in Curtea De Arges - Romania

Vrei sa afli care e starea vremii acum in Valcea - Romania? Dorim sa iti furnizam starea vremii pentru Valcea - Romania. Starea vremii Valcea - Romania pentru astazi.

Vremea acum in Curtea De Arges

Temperatura: 11 °C

Se simte ca: 10 °C
Innorat: 100 %
Precipitatii: 0 %
Presiune atmosferica: 1021 hPa
Umiditate: 58%
Vizibilitate: 10 km
Vantul bate din S cu 9 km/h

Evolutia vremii in Curtea De Arges pe ore

Ora: 02:00
Cer acoperit
Temperatura: 5.9°C
Sansa de precipitatii: 0%
Ora Descriere Temp Se simte Precipitatii Umiditate Vant
00:00Cer acoperit5.9°3.5°0%75%ENE 11.5 KM/H
01:00Parțial noros5.9°3.4°0%73%ENE 11.5 KM/H
02:00Cer acoperit5.9°3.4°0%70%ENE 11.9 KM/H
03:00Parțial noros5.5°0%72%ENE 11.5 KM/H
04:00Cer acoperit5.2°2.6°0%74%ENE 11.2 KM/H
05:00Parțial noros4.8°2.2°0%76%ENE 10.8 KM/H
06:00Ploi pe porţiuni în apropiere5.8°3.4°21%72%E 10.4 KM/H
07:00Parțial noros6.7°4.7°42%67%E 10.4 KM/H
08:00Ploi pe porţiuni în apropiere7.7°5.9°63%63%E 10.1 KM/H
09:00Parțial noros9.5°42%59%E 10.4 KM/H
10:00Ploi pe porţiuni în apropiere11.4°10.2°21%55%ESE 10.4 KM/H
11:00Parțial noros13.2°12.3°0%50%ESE 10.8 KM/H
12:00Parțial noros13.7°12.9°0%50%ESE 11.2 KM/H
13:00Parțial noros14.3°13.5°0%50%SE 11.5 KM/H
14:00Parțial noros14.8°14.1°0%50%SE 11.9 KM/H
15:00Parțial noros14.5°13.8°0%53%SE 11.5 KM/H
16:00Parțial noros14.2°13.5°0%55%ESE 11.2 KM/H
17:00Parțial noros13.9°13.2°0%57%ESE 10.8 KM/H
18:00Parțial noros12.6°12.1°0%65%E 10.1 KM/H
19:00Parțial noros11.2°11°0%72%ENE 9.7 KM/H
20:00Parțial noros9.9°9.9°0%80%NE 9 KM/H
21:00Parțial noros9.1°8.5°0%81%NE 9 KM/H
22:00Parțial noros8.3°7.2°0%83%NE 9 KM/H
23:00Parțial noros7.5°5.8°0%84%NE 9 KM/H